createdAt,value
2017-07-10T00:02:06.638Z,22.70
2017-07-10T00:04:41.051Z,22.60
2017-07-10T00:07:15.047Z,22.60
2017-07-10T00:09:49.670Z,22.60
2017-07-10T00:12:23.195Z,22.60
2017-07-10T00:14:56.970Z,22.60
2017-07-10T00:17:30.674Z,22.60
2017-07-10T00:20:04.277Z,22.60
2017-07-10T00:22:37.846Z,22.60
2017-07-10T00:25:11.447Z,22.60
2017-07-10T00:27:45.284Z,22.60
2017-07-10T00:30:19.803Z,22.60
2017-07-10T00:32:53.691Z,22.60
2017-07-10T00:35:27.406Z,22.60
2017-07-10T00:38:01.110Z,22.60
2017-07-10T00:40:35.836Z,22.60
2017-07-10T00:43:09.547Z,22.60
2017-07-10T00:45:43.247Z,22.60
2017-07-10T00:48:17.622Z,22.60
2017-07-10T00:50:51.351Z,22.60
2017-07-10T00:53:25.171Z,22.60
2017-07-10T00:55:58.763Z,22.60
2017-07-10T00:58:33.671Z,22.60
2017-07-10T01:01:07.303Z,22.60
2017-07-10T01:03:40.899Z,22.60
2017-07-10T01:06:14.488Z,22.70
2017-07-10T01:08:48.827Z,22.70
2017-07-10T01:11:22.932Z,22.60
2017-07-10T01:13:57.350Z,22.60
2017-07-10T01:16:30.995Z,22.60
2017-07-10T01:19:05.058Z,22.60
2017-07-10T01:21:44.706Z,22.60
2017-07-10T01:24:18.400Z,22.60
2017-07-10T01:26:53.012Z,22.60
2017-07-10T01:29:26.695Z,22.60
2017-07-10T01:32:00.334Z,22.60
2017-07-10T01:34:34.035Z,22.60
2017-07-10T01:37:07.538Z,22.60
2017-07-10T01:39:41.232Z,22.60
2017-07-10T01:42:14.939Z,22.60
2017-07-10T01:44:49.328Z,22.60
2017-07-10T01:47:22.962Z,22.60
2017-07-10T01:49:56.658Z,22.60
2017-07-10T01:52:31.171Z,22.60
2017-07-10T01:55:04.763Z,22.60
2017-07-10T01:57:38.390Z,22.60
2017-07-10T02:00:12.190Z,22.50
2017-07-10T02:02:45.787Z,22.60
2017-07-10T02:05:19.343Z,22.50
2017-07-10T02:07:52.983Z,22.50
2017-07-10T02:10:26.587Z,22.50
2017-07-10T02:13:00.187Z,22.50
2017-07-10T02:15:34.702Z,22.50
2017-07-10T02:18:08.303Z,22.50
2017-07-10T02:20:41.835Z,22.50
2017-07-10T02:23:15.610Z,22.50
2017-07-10T02:25:49.106Z,22.50
2017-07-10T02:28:22.690Z,22.50
2017-07-10T02:30:56.311Z,22.40
2017-07-10T02:33:30.118Z,22.40
2017-07-10T02:36:03.812Z,22.40
2017-07-10T02:38:37.519Z,22.40
2017-07-10T02:41:11.082Z,22.40
2017-07-10T02:43:44.781Z,22.40
2017-07-10T02:46:18.317Z,22.40
2017-07-10T02:48:51.915Z,22.40
2017-07-10T02:51:25.514Z,22.40
2017-07-10T02:53:59.731Z,22.40
2017-07-10T02:56:33.343Z,22.40
2017-07-10T02:59:06.932Z,22.40
2017-07-10T03:01:40.590Z,22.40
2017-07-10T03:04:14.439Z,22.40
2017-07-10T03:06:48.035Z,22.40
2017-07-10T03:09:21.739Z,22.30
2017-07-10T03:11:55.438Z,22.30
2017-07-10T03:14:29.151Z,22.40
2017-07-10T03:17:02.848Z,22.40
2017-07-10T03:19:36.447Z,22.30
2017-07-10T03:22:10.967Z,22.30
2017-07-10T03:24:44.775Z,22.30
2017-07-10T03:27:18.783Z,22.30
2017-07-10T03:29:53.307Z,22.30
2017-07-10T03:32:26.795Z,22.30
2017-07-10T03:35:00.808Z,22.40
2017-07-10T03:37:34.621Z,22.40
2017-07-10T03:40:08.321Z,22.40
2017-07-10T03:42:41.919Z,22.30
2017-07-10T03:45:15.624Z,22.30
2017-07-10T03:47:49.329Z,22.30
2017-07-10T03:50:23.735Z,22.20
2017-07-10T03:52:57.435Z,22.20
2017-07-10T03:55:31.948Z,22.20
2017-07-10T03:58:05.666Z,22.20
2017-07-10T04:00:39.470Z,22.20
2017-07-10T04:03:13.070Z,22.10
2017-07-10T04:05:46.720Z,22.20
2017-07-10T04:08:20.408Z,22.20
2017-07-10T04:10:54.107Z,22.20
2017-07-10T04:13:27.770Z,22.20
2017-07-10T04:16:01.350Z,22.10
2017-07-10T04:18:34.875Z,22.20
2017-07-10T04:21:08.660Z,22.10
2017-07-10T04:23:42.282Z,22.10
2017-07-10T04:26:16.704Z,22.10
2017-07-10T04:28:50.302Z,22.10
2017-07-10T04:31:23.900Z,22.10
2017-07-10T04:33:57.500Z,22.20
2017-07-10T04:36:31.184Z,22.20
2017-07-10T04:39:04.804Z,22.20
2017-07-10T04:41:38.506Z,22.20
2017-07-10T04:44:12.007Z,22.20
2017-07-10T04:46:46.532Z,22.20
2017-07-10T04:49:20.135Z,22.20
2017-07-10T04:51:53.931Z,22.20
2017-07-10T04:54:27.633Z,22.20
2017-07-10T04:57:01.541Z,22.20
2017-07-10T04:59:35.142Z,22.20
2017-07-10T05:02:08.847Z,22.20
2017-07-10T05:04:42.355Z,22.20
2017-07-10T05:07:16.891Z,22.20
2017-07-10T05:09:50.546Z,22.20
2017-07-10T05:12:24.291Z,22.20
2017-07-10T05:14:58.067Z,22.20
2017-07-10T05:17:31.772Z,22.20
2017-07-10T05:20:05.406Z,22.20
2017-07-10T05:22:39.378Z,22.20
2017-07-10T05:25:14.671Z,22.20
2017-07-10T05:27:48.429Z,22.20
2017-07-10T05:30:22.081Z,22.10
2017-07-10T05:32:56.652Z,22.20
2017-07-10T05:35:30.347Z,22.20
2017-07-10T05:38:03.832Z,22.20
2017-07-10T05:40:37.419Z,22.20
2017-07-10T05:43:11.238Z,22.20
2017-07-10T05:45:44.823Z,22.20
2017-07-10T05:48:18.555Z,22.20
2017-07-10T05:50:52.262Z,22.20
2017-07-10T05:53:25.855Z,22.20
2017-07-10T05:55:59.484Z,22.20
2017-07-10T05:58:33.981Z,22.20
2017-07-10T06:01:07.681Z,22.10
2017-07-10T06:03:42.190Z,22.20
2017-07-10T06:06:15.902Z,22.10
2017-07-10T06:08:50.527Z,22.10
2017-07-10T06:11:25.052Z,22.10
2017-07-10T06:13:58.772Z,22.10
2017-07-10T06:16:32.335Z,22.10
2017-07-10T06:19:05.957Z,22.10
2017-07-10T06:21:39.656Z,22.10
2017-07-10T06:24:13.464Z,22.10
2017-07-10T06:26:47.061Z,22.10
2017-07-10T06:29:21.579Z,22.10
2017-07-10T06:31:55.079Z,22.10
2017-07-10T06:34:29.499Z,22.10
2017-07-10T06:37:03.096Z,22.10
2017-07-10T06:39:36.648Z,22.20
2017-07-10T06:42:10.503Z,22.20
2017-07-10T06:44:44.052Z,22.10
2017-07-10T06:47:17.694Z,22.20
2017-07-10T06:49:52.119Z,22.20
2017-07-10T06:52:26.406Z,22.20
2017-07-10T06:55:00.210Z,22.20
2017-07-10T06:57:34.763Z,22.20
2017-07-10T07:00:09.488Z,22.20
2017-07-10T07:02:43.293Z,22.20
2017-07-10T07:05:16.888Z,22.20
2017-07-10T07:07:51.215Z,22.10
2017-07-10T07:10:24.920Z,22.10
2017-07-10T07:12:58.516Z,22.10
2017-07-10T07:15:32.927Z,22.20
2017-07-10T07:18:06.730Z,22.20
2017-07-10T07:20:40.419Z,22.20
2017-07-10T07:23:14.138Z,22.20
2017-07-10T07:25:47.946Z,22.20
2017-07-10T07:28:21.861Z,22.20
2017-07-10T07:30:55.555Z,22.20
2017-07-10T07:33:29.167Z,22.20
2017-07-10T07:36:02.754Z,22.20
2017-07-10T07:38:37.280Z,22.20
2017-07-10T07:41:11.189Z,22.20
2017-07-10T07:43:44.954Z,22.20
2017-07-10T07:46:18.490Z,22.20
2017-07-10T07:48:52.187Z,22.20
2017-07-10T07:51:25.892Z,22.20
2017-07-10T07:53:59.620Z,22.30
2017-07-10T07:56:33.502Z,22.20
2017-07-10T07:59:07.099Z,22.20
2017-07-10T08:01:40.878Z,22.20
2017-07-10T08:04:15.216Z,22.20
2017-07-10T08:06:48.935Z,22.20
2017-07-10T08:09:22.829Z,22.20
2017-07-10T08:11:56.399Z,22.20
2017-07-10T08:14:30.035Z,22.20
2017-07-10T08:17:03.735Z,22.20
2017-07-10T08:19:37.233Z,22.20
2017-07-10T08:22:10.933Z,22.20
2017-07-10T08:24:44.742Z,22.20
2017-07-10T08:27:18.339Z,22.30
2017-07-10T08:29:52.271Z,22.30
2017-07-10T08:32:25.954Z,22.30
2017-07-10T08:34:59.528Z,22.30
2017-07-10T08:37:33.163Z,22.30
2017-07-10T08:40:07.462Z,22.40
2017-07-10T08:42:41.019Z,22.30
2017-07-10T08:45:14.867Z,22.30
2017-07-10T08:47:48.676Z,22.40
2017-07-10T08:50:22.375Z,22.40
2017-07-10T08:52:56.080Z,22.40
2017-07-10T08:55:29.683Z,22.40
2017-07-10T08:58:03.274Z,22.40
2017-07-10T09:00:36.839Z,22.50
2017-07-10T09:03:10.474Z,22.50
2017-07-10T09:05:44.079Z,22.50
2017-07-10T09:08:17.638Z,22.50
2017-07-10T09:10:51.433Z,22.50
2017-07-10T09:13:26.007Z,22.50
2017-07-10T09:16:00.321Z,22.50
2017-07-10T09:18:34.024Z,22.50
2017-07-10T09:21:07.618Z,22.60
2017-07-10T09:23:41.329Z,22.60
2017-07-10T09:26:14.919Z,22.60
2017-07-10T09:28:49.339Z,22.60
2017-07-10T09:31:22.911Z,22.60
2017-07-10T09:33:56.552Z,22.60
2017-07-10T09:36:30.249Z,22.60
2017-07-10T09:39:03.943Z,22.60
2017-07-10T09:41:38.083Z,22.60
2017-07-10T09:44:11.943Z,22.60
2017-07-10T09:46:46.247Z,22.60
2017-07-10T09:49:19.987Z,22.60
2017-07-10T09:51:54.242Z,22.60
2017-07-10T09:54:27.935Z,22.60
2017-07-10T09:57:02.635Z,22.60
2017-07-10T09:59:36.327Z,22.60
2017-07-10T10:02:09.930Z,22.60
2017-07-10T10:04:43.606Z,22.60
2017-07-10T10:07:17.236Z,22.60
2017-07-10T10:09:51.447Z,22.60
2017-07-10T10:12:24.945Z,22.60
2017-07-10T10:14:58.653Z,22.60
2017-07-10T10:17:32.247Z,22.60
2017-07-10T10:20:06.054Z,22.60
2017-07-10T10:22:39.654Z,22.60
2017-07-10T10:25:13.357Z,22.60
2017-07-10T10:27:47.159Z,22.60
2017-07-10T10:30:20.760Z,22.60
2017-07-10T10:32:55.182Z,22.70
2017-07-10T10:35:29.495Z,22.70
2017-07-10T10:38:02.992Z,22.70
2017-07-10T10:40:36.490Z,22.70
2017-07-10T10:43:10.135Z,22.60
2017-07-10T10:45:44.504Z,22.60
2017-07-10T10:48:18.168Z,22.60
2017-07-10T10:50:51.788Z,22.60
2017-07-10T10:53:25.511Z,22.60
2017-07-10T10:55:59.210Z,22.60
2017-07-10T10:58:32.789Z,22.70
2017-07-10T11:01:06.546Z,22.70
2017-07-10T11:03:41.038Z,22.70
2017-07-10T11:06:14.540Z,22.70
2017-07-10T11:08:48.239Z,22.70
2017-07-10T11:11:22.139Z,22.70
2017-07-10T11:13:55.811Z,22.80
2017-07-10T11:16:30.376Z,22.70
2017-07-10T11:19:04.039Z,22.70
2017-07-10T11:21:37.672Z,22.90
2017-07-10T11:24:11.258Z,22.90
2017-07-10T11:26:45.695Z,23.00
2017-07-10T11:29:19.298Z,23.00
2017-07-10T11:31:52.908Z,22.90
2017-07-10T11:34:26.596Z,22.90
2017-07-10T11:37:00.907Z,22.90
2017-07-10T11:39:34.406Z,22.90
2017-07-10T11:42:08.801Z,22.80
2017-07-10T11:44:42.368Z,22.80
2017-07-10T11:47:16.028Z,22.80
2017-07-10T11:49:50.448Z,22.70
2017-07-10T11:52:24.862Z,22.70
2017-07-10T11:54:58.530Z,22.70
2017-07-10T11:57:32.138Z,22.70
2017-07-10T12:00:05.771Z,22.60
2017-07-10T12:02:39.480Z,22.60
2017-07-10T12:05:13.276Z,22.60
2017-07-10T12:07:47.800Z,22.60
2017-07-10T12:10:22.215Z,22.60
2017-07-10T12:12:55.755Z,22.50
2017-07-10T12:15:29.458Z,22.50
2017-07-10T12:18:04.039Z,22.60
2017-07-10T12:20:37.648Z,22.60
2017-07-10T12:23:11.450Z,22.60
2017-07-10T12:25:45.147Z,22.60
2017-07-10T12:28:18.752Z,22.50
2017-07-10T12:30:53.171Z,22.50
2017-07-10T12:33:26.878Z,22.50
2017-07-10T12:36:00.571Z,22.50
2017-07-10T12:38:34.280Z,22.50
2017-07-10T12:41:07.874Z,22.50
2017-07-10T12:43:41.471Z,22.60
2017-07-10T12:46:15.587Z,22.60
2017-07-10T12:48:49.394Z,22.60
2017-07-10T12:51:22.896Z,22.60
2017-07-10T12:53:57.320Z,22.60
2017-07-10T12:56:31.020Z,22.60
2017-07-10T12:59:04.502Z,22.70
2017-07-10T13:01:38.116Z,22.70
2017-07-10T13:04:11.708Z,22.70
2017-07-10T13:06:46.198Z,23.00
2017-07-10T13:09:19.933Z,23.00
2017-07-10T13:11:54.619Z,23.20
2017-07-10T13:14:28.371Z,23.20
2017-07-10T13:17:02.835Z,23.10
2017-07-10T13:19:36.480Z,23.10
2017-07-10T13:22:09.999Z,23.00
2017-07-10T13:24:43.628Z,23.00
2017-07-10T13:27:17.277Z,23.10
2017-07-10T13:29:50.982Z,23.00
2017-07-10T13:32:25.455Z,23.00
2017-07-10T13:34:59.191Z,23.00
2017-07-10T13:37:33.426Z,23.10
2017-07-10T13:40:07.126Z,23.10
2017-07-10T13:42:40.723Z,23.30
2017-07-10T13:45:14.303Z,23.40
2017-07-10T13:47:48.032Z,23.40
2017-07-10T13:50:21.623Z,23.30
2017-07-10T13:52:55.218Z,23.30
2017-07-10T13:55:29.014Z,23.20
2017-07-10T13:58:02.633Z,23.10
2017-07-10T14:00:36.331Z,23.10
2017-07-10T14:03:10.027Z,23.10
2017-07-10T14:05:43.740Z,23.00
2017-07-10T14:08:17.543Z,23.00
2017-07-10T14:10:51.151Z,23.00
2017-07-10T14:13:24.744Z,23.00
2017-07-10T14:15:58.339Z,23.00
2017-07-10T14:18:31.980Z,23.00
2017-07-10T14:21:05.523Z,23.00
2017-07-10T14:23:39.119Z,22.90
2017-07-10T14:26:12.647Z,22.90
2017-07-10T14:28:46.377Z,22.90
2017-07-10T14:31:20.059Z,22.90
2017-07-10T14:33:54.559Z,22.90
2017-07-10T14:36:28.167Z,22.90
2017-07-10T14:39:01.875Z,22.90
2017-07-10T14:41:36.396Z,22.90
2017-07-10T14:44:10.095Z,22.90
2017-07-10T14:46:43.744Z,22.90
2017-07-10T14:49:18.216Z,22.90
2017-07-10T14:51:51.767Z,22.90
2017-07-10T14:54:25.416Z,22.90
2017-07-10T14:56:59.008Z,22.90
2017-07-10T14:59:32.827Z,22.90
2017-07-10T15:02:06.522Z,22.90
2017-07-10T15:04:40.119Z,22.90
2017-07-10T15:07:13.678Z,23.00
2017-07-10T15:09:47.314Z,23.00
2017-07-10T15:12:21.020Z,23.00
2017-07-10T15:14:54.519Z,23.00
2017-07-10T15:17:28.131Z,23.00
2017-07-10T15:20:02.031Z,23.00
2017-07-10T15:22:35.722Z,23.00
2017-07-10T15:25:09.228Z,23.00
2017-07-10T15:27:42.830Z,22.90
2017-07-10T15:30:17.199Z,23.00
2017-07-10T15:32:51.558Z,22.90
2017-07-10T15:35:25.947Z,22.90
2017-07-10T15:37:59.583Z,22.90
2017-07-10T15:40:33.863Z,22.90
2017-07-10T15:43:07.803Z,22.90
2017-07-10T15:45:41.303Z,22.90
2017-07-10T15:48:15.049Z,22.90
2017-07-10T15:50:48.823Z,22.90
2017-07-10T15:53:22.415Z,22.90
2017-07-10T15:55:55.999Z,22.90
2017-07-10T15:58:30.534Z,22.90
2017-07-10T16:01:04.210Z,22.90
2017-07-10T16:03:37.939Z,22.90
2017-07-10T16:06:12.351Z,22.90
2017-07-10T16:08:46.158Z,22.90
2017-07-10T16:11:19.759Z,22.80
2017-07-10T16:13:53.347Z,22.80
2017-07-10T16:16:27.018Z,22.80
2017-07-10T16:19:00.795Z,22.80
2017-07-10T16:21:34.531Z,22.80
2017-07-10T16:24:08.125Z,22.80
2017-07-10T16:26:42.492Z,22.80
2017-07-10T16:29:16.190Z,22.80
2017-07-10T16:31:49.939Z,22.80
2017-07-10T16:34:23.642Z,22.80
2017-07-10T16:36:58.207Z,22.80
2017-07-10T16:39:31.919Z,22.80
2017-07-10T16:42:05.611Z,22.80
2017-07-10T16:44:40.109Z,22.80
2017-07-10T16:47:13.869Z,22.80
2017-07-10T16:49:48.256Z,22.70
2017-07-10T16:52:22.680Z,22.70
2017-07-10T16:54:56.379Z,22.70
2017-07-10T16:57:31.316Z,22.70
2017-07-10T17:00:05.103Z,22.70
2017-07-10T17:02:38.820Z,22.70
2017-07-10T17:05:12.518Z,22.70
2017-07-10T17:07:46.530Z,22.70
2017-07-10T17:10:21.151Z,22.70
2017-07-10T17:12:54.862Z,22.70
2017-07-10T17:15:28.563Z,22.70
2017-07-10T17:18:02.988Z,22.70
2017-07-10T17:20:37.607Z,22.70
2017-07-10T17:23:11.309Z,22.70
2017-07-10T17:25:44.907Z,22.70
2017-07-10T17:28:18.511Z,22.70
2017-07-10T17:30:52.207Z,22.70
2017-07-10T17:33:25.751Z,22.70
2017-07-10T17:35:59.308Z,22.70
2017-07-10T17:38:33.622Z,22.60
2017-07-10T17:41:07.327Z,22.60
2017-07-10T17:43:40.927Z,22.60
2017-07-10T17:46:14.729Z,22.70
2017-07-10T17:48:48.348Z,22.60
2017-07-10T17:51:22.267Z,22.60
2017-07-10T17:53:55.999Z,22.60
2017-07-10T17:56:29.888Z,22.60
2017-07-10T17:59:03.650Z,22.60
2017-07-10T18:01:37.455Z,22.60
2017-07-10T18:04:11.134Z,22.60
2017-07-10T18:06:44.876Z,22.60
2017-07-10T18:09:18.548Z,22.60
2017-07-10T18:11:52.844Z,22.60
2017-07-10T18:14:26.565Z,22.60
2017-07-10T18:17:01.001Z,22.60
2017-07-10T18:19:35.463Z,22.60
2017-07-10T18:22:10.091Z,22.60
2017-07-10T18:24:43.913Z,22.60
2017-07-10T18:27:18.481Z,22.50
2017-07-10T18:29:52.121Z,22.50
2017-07-10T18:32:26.003Z,22.50
2017-07-10T18:34:59.732Z,22.50
2017-07-10T18:37:33.594Z,22.50
2017-07-10T18:40:07.474Z,22.50
2017-07-10T18:42:41.195Z,22.50
2017-07-10T18:45:14.836Z,22.50
2017-07-10T18:47:48.610Z,22.50
2017-07-10T18:50:22.430Z,22.50
2017-07-10T18:52:56.043Z,22.50
2017-07-10T18:55:29.512Z,22.50
2017-07-10T18:58:03.067Z,22.50
2017-07-10T19:00:36.596Z,22.40
2017-07-10T19:03:10.280Z,22.40
2017-07-10T19:05:43.799Z,22.50
2017-07-10T19:08:17.492Z,22.50
2017-07-10T19:10:50.987Z,22.40
2017-07-10T19:13:24.659Z,22.40
2017-07-10T19:15:58.196Z,22.40
2017-07-10T19:18:31.763Z,22.40
2017-07-10T19:21:05.248Z,22.40
2017-07-10T19:23:38.806Z,22.40
2017-07-10T19:26:12.283Z,22.40
2017-07-10T19:28:45.820Z,22.50
2017-07-10T19:31:19.296Z,22.40
2017-07-10T19:33:52.983Z,22.40
2017-07-10T19:36:26.596Z,22.40
2017-07-10T19:39:00.212Z,22.40
2017-07-10T19:41:33.798Z,22.30
2017-07-10T19:44:07.477Z,22.40
2017-07-10T19:46:40.942Z,22.40
2017-07-10T19:49:14.441Z,22.30
2017-07-10T19:51:48.045Z,22.30
2017-07-10T19:54:21.603Z,22.30
2017-07-10T19:56:55.253Z,22.20
2017-07-10T19:59:28.939Z,22.30
2017-07-10T20:02:02.403Z,22.20
2017-07-10T20:04:35.964Z,22.30
2017-07-10T20:07:09.567Z,22.20
2017-07-10T20:09:43.123Z,22.20
2017-07-10T20:12:16.574Z,22.20
2017-07-10T20:14:50.180Z,22.20
2017-07-10T20:17:23.694Z,22.20
2017-07-10T20:19:57.352Z,22.20
2017-07-10T20:22:30.810Z,22.20
2017-07-10T20:25:04.363Z,22.20
2017-07-10T20:27:37.967Z,22.10
2017-07-10T20:30:11.586Z,22.10
2017-07-10T20:32:45.059Z,22.10
2017-07-10T20:35:18.608Z,22.10
2017-07-10T20:37:52.259Z,22.10
2017-07-10T20:40:25.747Z,22.10
2017-07-10T20:42:59.242Z,22.10
2017-07-10T20:45:32.926Z,22.10
2017-07-10T20:48:06.415Z,22.00
2017-07-10T20:50:39.963Z,22.00
2017-07-10T20:53:13.457Z,22.00
2017-07-10T20:55:47.095Z,22.00
2017-07-10T20:58:20.656Z,22.00
2017-07-10T21:00:54.154Z,22.00
2017-07-10T21:03:27.769Z,22.00
2017-07-10T21:06:01.480Z,22.00
2017-07-10T21:08:35.147Z,22.00
2017-07-10T21:11:08.755Z,22.00
2017-07-10T21:13:42.284Z,22.00
2017-07-10T21:16:15.919Z,22.00
2017-07-10T21:18:49.393Z,22.00
2017-07-10T21:21:22.958Z,21.90
2017-07-10T21:23:56.422Z,21.90
2017-07-10T21:26:29.908Z,21.90
2017-07-10T21:29:03.387Z,21.90
2017-07-10T21:31:36.937Z,21.90
2017-07-10T21:34:11.351Z,21.90
2017-07-10T21:36:44.976Z,21.90
2017-07-10T21:39:18.439Z,21.90
2017-07-10T21:41:52.067Z,21.80
2017-07-10T21:44:25.567Z,21.80
2017-07-10T21:46:59.884Z,21.80
2017-07-10T21:49:33.488Z,21.80
2017-07-10T21:52:06.984Z,21.80
2017-07-10T21:54:40.583Z,21.80
2017-07-10T21:57:14.387Z,21.80
2017-07-10T21:59:48.086Z,21.90
2017-07-10T22:02:21.791Z,21.90
2017-07-10T22:04:55.494Z,21.90
2017-07-10T22:07:29.195Z,21.80
2017-07-10T22:10:03.610Z,21.80
2017-07-10T22:12:37.319Z,21.80
2017-07-10T22:15:10.919Z,21.80
2017-07-10T22:17:44.615Z,21.80
2017-07-10T22:20:19.089Z,21.80
2017-07-10T22:22:52.707Z,21.80
2017-07-10T22:25:26.347Z,21.70
2017-07-10T22:28:00.151Z,21.70
2017-07-10T22:30:33.751Z,21.80
2017-07-10T22:33:07.564Z,21.70
2017-07-10T22:35:41.941Z,21.80
2017-07-10T22:38:15.757Z,21.70
2017-07-10T22:40:49.575Z,21.80
2017-07-10T22:43:23.981Z,21.80
2017-07-10T22:45:58.312Z,21.80
2017-07-10T22:48:32.019Z,21.80
2017-07-10T22:51:05.618Z,21.80
2017-07-10T22:53:39.328Z,21.80
2017-07-10T22:56:12.919Z,21.80
2017-07-10T22:58:46.728Z,21.80
2017-07-10T23:01:21.859Z,21.80
2017-07-10T23:03:55.479Z,21.80
2017-07-10T23:06:29.069Z,21.80
2017-07-10T23:09:03.587Z,21.80
2017-07-10T23:11:37.491Z,21.80
2017-07-10T23:14:11.091Z,21.80
2017-07-10T23:16:44.668Z,21.80
2017-07-10T23:19:19.012Z,21.80
2017-07-10T23:21:52.815Z,21.80
2017-07-10T23:24:27.330Z,21.80
2017-07-10T23:27:00.831Z,21.80
2017-07-10T23:29:34.536Z,21.80
2017-07-10T23:32:08.127Z,21.80
2017-07-10T23:34:41.940Z,21.80
2017-07-10T23:37:15.587Z,21.70
2017-07-10T23:39:49.383Z,21.80
2017-07-10T23:42:22.998Z,21.80
2017-07-10T23:44:57.460Z,21.80
2017-07-10T23:47:31.059Z,21.80
2017-07-10T23:50:05.381Z,21.80
2017-07-10T23:52:39.081Z,21.80
2017-07-10T23:55:12.895Z,21.80
2017-07-10T23:57:46.380Z,21.80
